UKOO/ODS METAR and TAF weather

Enter ICAO airport designator
Station Type Date Time Source
UKOO METAR 2019/04/20 18:00 UTC NOAA

UKOO 201800Z 24002MPS CAVOK 08/M02 Q1025 R16/090060 NOSIG


Station Type Date Time Source
UKOO Decoded METAR 2019/04/20 18:00 UTC NOAA

Odesa, Ukraine (UKOO) 46-26N 030-46E 42M
Apr 20, 2019 - 02:00 PM EDT / 2019.04.20 1800 UTC
Wind: from the WSW (240 degrees) at 4 MPH (4 KT):0
Visibility: greater than 7 mile(s):0
Temperature: 46 F (8 C)
Dew Point: 28 F (-2 C)
Relative Humidity: 49%
Pressure (altimeter): 30.27 in. Hg (1025 hPa)
ob: UKOO 201800Z 24002MPS CAVOK 08/M02 Q1025 R16/090060 NOSIG
cycle: 18

Station Type Date Time Source
UKOO TAF 2019/04/20 18:12 UTC NOAA

TAF UKOO 201705Z 2018/2118 05003MPS 2100 BR BKN007 SCT020CB TX14/2112Z TN04/2103Z
BECMG 2106/2107 10005G11MPS 6000 NSW

Example: see airport list